sensor_id;sensor_type;location;lat;lon;timestamp;pressure;altitude;pressure_sealevel;temperature;humidity
78613;BME280;67933;51.060;3.638;2023-08-07T00:00:05;101842.41;;;9.26;100.00
78613;BME280;67933;51.060;3.638;2023-08-07T00:02:30;101850.59;;;9.20;100.00
78613;BME280;67933;51.060;3.638;2023-08-07T00:04:56;101848.09;;;9.15;100.00
78613;BME280;67933;51.060;3.638;2023-08-07T00:07:22;101846.53;;;9.10;100.00
78613;BME280;67933;51.060;3.638;2023-08-07T00:09:50;101843.28;;;9.02;100.00
78613;BME280;67933;51.060;3.638;2023-08-07T00:12:15;101842.38;;;9.03;100.00
78613;BME280;67933;51.060;3.638;2023-08-07T00:14:40;101846.97;;;8.98;100.00
78613;BME280;67933;51.060;3.638;2023-08-07T00:17:06;101841.88;;;8.92;100.00
78613;BME280;67933;51.060;3.638;2023-08-07T00:19:31;101836.81;;;8.85;100.00
78613;BME280;67933;51.060;3.638;2023-08-07T00:21:57;101845.78;;;8.81;100.00
78613;BME280;67933;51.060;3.638;2023-08-07T00:24:22;101838.03;;;8.75;100.00
78613;BME280;67933;51.060;3.638;2023-08-07T00:26:47;101845.31;;;8.69;100.00
78613;BME280;67933;51.060;3.638;2023-08-07T00:29:13;101845.56;;;8.61;100.00
78613;BME280;67933;51.060;3.638;2023-08-07T00:31:38;101836.16;;;8.53;100.00
78613;BME280;67933;51.060;3.638;2023-08-07T00:34:03;101850.38;;;8.50;100.00
78613;BME280;67933;51.060;3.638;2023-08-07T00:36:29;101844.34;;;8.45;100.00
78613;BME280;67933;51.060;3.638;2023-08-07T00:38:56;101853.31;;;8.41;100.00
78613;BME280;67933;51.060;3.638;2023-08-07T00:41:21;101843.69;;;8.38;100.00
78613;BME280;67933;51.060;3.638;2023-08-07T00:43:47;101852.66;;;8.34;100.00
78613;BME280;67933;51.060;3.638;2023-08-07T00:46:12;101854.41;;;8.34;100.00
78613;BME280;67933;51.060;3.638;2023-08-07T00:48:38;101844.78;;;8.31;100.00
78613;BME280;67933;51.060;3.638;2023-08-07T00:51:04;101847.56;;;8.27;100.00
78613;BME280;67933;51.060;3.638;2023-08-07T00:53:33;101847.56;;;8.27;100.00
78613;BME280;67933;51.060;3.638;2023-08-07T00:55:59;101850.03;;;8.33;100.00
78613;BME280;67933;51.060;3.638;2023-08-07T00:58:25;101855.34;;;8.33;100.00
78613;BME280;67933;51.060;3.638;2023-08-07T01:00:51;101851.81;;;8.32;100.00
78613;BME280;67933;51.060;3.638;2023-08-07T01:03:16;101848.34;;;8.29;100.00
78613;BME280;67933;51.060;3.638;2023-08-07T01:05:41;101848.34;;;8.29;100.00
78613;BME280;67933;51.060;3.638;2023-08-07T01:08:07;101852.00;;;8.26;100.00
78613;BME280;67933;51.060;3.638;2023-08-07T01:13:53;101861.06;;;8.18;100.00
78613;BME280;67933;51.060;3.638;2023-08-07T01:16:34;101851.50;;;8.13;100.00
78613;BME280;67933;51.060;3.638;2023-08-07T01:19:01;101856.78;;;8.13;100.00
78613;BME280;67933;51.060;3.638;2023-08-07T01:21:28;101862.19;;;8.10;100.00
78613;BME280;67933;51.060;3.638;2023-08-07T01:23:54;101863.00;;;8.13;100.00
78613;BME280;67933;51.060;3.638;2023-08-07T01:26:20;101870.06;;;8.12;100.00
78613;BME280;67933;51.060;3.638;2023-08-07T01:29:16;101873.41;;;8.17;100.00
78613;BME280;67933;51.060;3.638;2023-08-07T01:31:46;101865.44;;;8.19;100.00
78613;BME280;67933;51.060;3.638;2023-08-07T01:34:15;101874.38;;;8.15;100.00
78613;BME280;67933;51.060;3.638;2023-08-07T01:36:45;101869.34;;;8.05;100.00
78613;BME280;67933;51.060;3.638;2023-08-07T01:39:11;101870.53;;;7.97;100.00
78613;BME280;67933;51.060;3.638;2023-08-07T01:41:38;101869.78;;;7.92;100.00
78613;BME280;67933;51.060;3.638;2023-08-07T01:44:03;101861.91;;;7.90;100.00
78613;BME280;67933;51.060;3.638;2023-08-07T01:46:29;101867.19;;;7.90;100.00
78613;BME280;67933;51.060;3.638;2023-08-07T01:48:55;101863.69;;;7.90;100.00
78613;BME280;67933;51.060;3.638;2023-08-07T01:51:20;101867.31;;;7.87;100.00
78613;BME280;67933;51.060;3.638;2023-08-07T01:53:46;101871.75;;;7.85;100.00
78613;BME280;67933;51.060;3.638;2023-08-07T01:56:13;101867.38;;;7.84;100.00
78613;BME280;67933;51.060;3.638;2023-08-07T01:58:38;101866.47;;;7.85;100.00
78613;BME280;67933;51.060;3.638;2023-08-07T02:01:04;101873.56;;;7.83;100.00
78613;BME280;67933;51.060;3.638;2023-08-07T02:03:29;101876.84;;;7.91;100.00
78613;BME280;67933;51.060;3.638;2023-08-07T02:05:54;101866.88;;;8.01;100.00
78613;BME280;67933;51.060;3.638;2023-08-07T02:08:20;101870.16;;;8.09;100.00
78613;BME280;67933;51.060;3.638;2023-08-07T02:10:45;101864.53;;;8.20;100.00
78613;BME280;67933;51.060;3.638;2023-08-07T02:13:11;101878.47;;;8.25;100.00
78613;BME280;67933;51.060;3.638;2023-08-07T02:15:36;101871.56;;;8.21;100.00
78613;BME280;67933;51.060;3.638;2023-08-07T02:18:02;101865.28;;;8.23;100.00
78613;BME280;67933;51.060;3.638;2023-08-07T02:20:27;101867.97;;;8.22;100.00
78613;BME280;67933;51.060;3.638;2023-08-07T02:22:52;101873.25;;;8.22;100.00
78613;BME280;67933;51.060;3.638;2023-08-07T02:25:18;101876.78;;;8.22;100.00
78613;BME280;67933;51.060;3.638;2023-08-07T02:27:43;101872.28;;;8.26;100.00
78613;BME280;67933;51.060;3.638;2023-08-07T02:30:09;101869.59;;;8.27;100.00
78613;BME280;67933;51.060;3.638;2023-08-07T02:32:34;101863.44;;;8.27;100.00
78613;BME280;67933;51.060;3.638;2023-08-07T02:35:00;101872.28;;;8.26;100.00
78613;BME280;67933;51.060;3.638;2023-08-07T02:37:25;101864.28;;;8.27;100.00
78613;BME280;67933;51.060;3.638;2023-08-07T02:39:51;101856.25;;;8.32;100.00
78613;BME280;67933;51.060;3.638;2023-08-07T02:42:16;101860.66;;;8.31;100.00
78613;BME280;67933;51.060;3.638;2023-08-07T02:44:41;101862.34;;;8.34;100.00
78613;BME280;67933;51.060;3.638;2023-08-07T02:47:07;101859.00;;;8.27;100.00
78613;BME280;67933;51.060;3.638;2023-08-07T02:49:32;101859.09;;;8.24;100.00
78613;BME280;67933;51.060;3.638;2023-08-07T02:51:58;101863.50;;;8.24;100.00
78613;BME280;67933;51.060;3.638;2023-08-07T02:54:23;101869.72;;;8.23;100.00
78613;BME280;67933;51.060;3.638;2023-08-07T02:56:49;101865.44;;;8.19;100.00
78613;BME280;67933;51.060;3.638;2023-08-07T02:59:15;101863.09;;;8.09;100.00
78613;BME280;67933;51.060;3.638;2023-08-07T03:01:40;101869.94;;;8.15;100.00
78613;BME280;67933;51.060;3.638;2023-08-07T03:04:05;101859.56;;;8.09;100.00
78613;BME280;67933;51.060;3.638;2023-08-07T03:06:31;101864.16;;;8.04;100.00
78613;BME280;67933;51.060;3.638;2023-08-07T03:08:57;101863.47;;;7.97;100.00
78613;BME280;67933;51.060;3.638;2023-08-07T03:11:22;101863.69;;;7.90;100.00
78613;BME280;67933;51.060;3.638;2023-08-07T03:13:47;101862.84;;;7.89;100.00
78613;BME280;67933;51.060;3.638;2023-08-07T03:16:14;101854.97;;;7.88;100.00
78613;BME280;67933;51.060;3.638;2023-08-07T03:18:39;101856.53;;;7.93;100.00
78613;BME280;67933;51.060;3.638;2023-08-07T03:21:05;101855.66;;;7.93;100.00
78613;BME280;67933;51.060;3.638;2023-08-07T03:23:30;101865.38;;;7.92;100.00
78613;BME280;67933;51.060;3.638;2023-08-07T03:26:06;101867.38;;;7.84;100.00
78613;BME280;67933;51.060;3.638;2023-08-07T03:28:32;101862.09;;;7.84;100.00
78613;BME280;67933;51.060;3.638;2023-08-07T03:30:58;101864.72;;;7.84;100.00
78613;BME280;67933;51.060;3.638;2023-08-07T03:33:23;101872.78;;;7.81;100.00
78613;BME280;67933;51.060;3.638;2023-08-07T03:35:49;101865.59;;;7.85;100.00
78613;BME280;67933;51.060;3.638;2023-08-07T03:38:14;101868.41;;;7.80;100.00
78613;BME280;67933;51.060;3.638;2023-08-07T03:40:39;101870.22;;;7.78;100.00
78613;BME280;67933;51.060;3.638;2023-08-07T03:43:05;101872.94;;;7.75;100.00
78613;BME280;67933;51.060;3.638;2023-08-07T03:45:30;101873.94;;;7.71;100.00
78613;BME280;67933;51.060;3.638;2023-08-07T03:47:56;101875.00;;;7.65;100.00
78613;BME280;67933;51.060;3.638;2023-08-07T03:50:21;101876.00;;;7.60;100.00
78613;BME280;67933;51.060;3.638;2023-08-07T03:52:46;101875.25;;;7.56;100.00
78613;BME280;67933;51.060;3.638;2023-08-07T03:55:12;101864.72;;;7.55;100.00
78613;BME280;67933;51.060;3.638;2023-08-07T03:57:37;101875.22;;;7.58;100.00
78613;BME280;67933;51.060;3.638;2023-08-07T04:00:03;101886.56;;;7.60;100.00
78613;BME280;67933;51.060;3.638;2023-08-07T04:02:28;101875.22;;;7.58;100.00
78613;BME280;67933;51.060;3.638;2023-08-07T04:04:55;101877.94;;;7.55;100.00
78613;BME280;67933;51.060;3.638;2023-08-07T04:07:20;101874.25;;;7.60;100.00
78613;BME280;67933;51.060;3.638;2023-08-07T04:09:46;101878.72;;;7.58;100.00
78613;BME280;67933;51.060;3.638;2023-08-07T04:12:11;101879.66;;;7.56;100.00
78613;BME280;67933;51.060;3.638;2023-08-07T04:14:37;101886.50;;;7.63;100.00
78613;BME280;67933;51.060;3.638;2023-08-07T04:17:02;101893.41;;;7.67;100.00
78613;BME280;67933;51.060;3.638;2023-08-07T04:19:29;101885.50;;;7.67;100.00
78613;BME280;67933;51.060;3.638;2023-08-07T04:21:54;101893.38;;;7.68;100.00
78613;BME280;67933;51.060;3.638;2023-08-07T04:24:20;101888.25;;;7.64;100.00
78613;BME280;67933;51.060;3.638;2023-08-07T04:26:45;101890.97;;;7.61;100.00
78613;BME280;67933;51.060;3.638;2023-08-07T04:29:10;101890.22;;;7.56;100.00
78613;BME280;67933;51.060;3.638;2023-08-07T04:31:36;101894.66;;;7.55;100.00
78613;BME280;67933;51.060;3.638;2023-08-07T04:34:01;101900.78;;;7.56;100.00
78613;BME280;67933;51.060;3.638;2023-08-07T04:36:27;101899.03;;;7.56;100.00
78613;BME280;67933;51.060;3.638;2023-08-07T04:38:52;101899.84;;;7.58;100.00
78613;BME280;67933;51.060;3.638;2023-08-07T04:41:17;101898.16;;;7.56;100.00
78613;BME280;67933;51.060;3.638;2023-08-07T04:43:43;101900.63;;;7.62;100.00
78613;BME280;67933;51.060;3.638;2023-08-07T04:46:09;101907.44;;;7.69;100.00
78613;BME280;67933;51.060;3.638;2023-08-07T04:48:35;101911.78;;;7.71;100.00
78613;BME280;67933;51.060;3.638;2023-08-07T04:51:01;101903.81;;;7.73;100.00
78613;BME280;67933;51.060;3.638;2023-08-07T04:53:27;101904.59;;;7.77;100.00
78613;BME280;67933;51.060;3.638;2023-08-07T04:55:52;101910.69;;;7.79;100.00
78613;BME280;67933;51.060;3.638;2023-08-07T04:58:18;101919.38;;;7.82;100.00
78613;BME280;67933;51.060;3.638;2023-08-07T05:00:43;101908.69;;;7.87;100.00
78613;BME280;67933;51.060;3.638;2023-08-07T05:03:09;101906.75;;;7.93;100.00
78613;BME280;67933;51.060;3.638;2023-08-07T05:05:34;101912.59;;;8.04;100.00
78613;BME280;67933;51.060;3.638;2023-08-07T05:08:00;101899.81;;;8.19;100.00
78613;BME280;67933;51.060;3.638;2023-08-07T05:10:26;101909.03;;;8.35;100.00
78613;BME280;67933;51.060;3.638;2023-08-07T05:12:51;101900.00;;;8.42;100.00
78613;BME280;67933;51.060;3.638;2023-08-07T05:15:23;101900.50;;;8.53;100.00
78613;BME280;67933;51.060;3.638;2023-08-07T05:17:50;101915.38;;;8.57;100.00
78613;BME280;67933;51.060;3.638;2023-08-07T05:20:15;101916.56;;;8.75;100.00
78613;BME280;67933;51.060;3.638;2023-08-07T05:22:41;101919.00;;;8.81;100.00
78613;BME280;67933;51.060;3.638;2023-08-07T05:25:06;101912.63;;;8.86;100.00
78613;BME280;67933;51.060;3.638;2023-08-07T05:27:32;101916.53;;;9.01;100.00
78613;BME280;67933;51.060;3.638;2023-08-07T05:29:57;101924.84;;;9.15;100.00
78613;BME280;67933;51.060;3.638;2023-08-07T05:32:24;101919.22;;;9.26;100.00
78613;BME280;67933;51.060;3.638;2023-08-07T05:34:49;101919.34;;;9.46;100.00
78613;BME280;67933;51.060;3.638;2023-08-07T05:37:15;101911.03;;;9.57;100.00
78613;BME280;67933;51.060;3.638;2023-08-07T05:39:41;101918.47;;;9.71;100.00
78613;BME280;67933;51.060;3.638;2023-08-07T05:42:06;101912.94;;;9.77;100.00
78613;BME280;67933;51.060;3.638;2023-08-07T05:44:33;101909.03;;;9.87;100.00
78613;BME280;67933;51.060;3.638;2023-08-07T05:46:58;101913.06;;;9.97;100.00
78613;BME280;67933;51.060;3.638;2023-08-07T05:49:23;101913.84;;;9.99;100.00
78613;BME280;67933;51.060;3.638;2023-08-07T05:51:49;101918.59;;;10.14;100.00
78613;BME280;67933;51.060;3.638;2023-08-07T05:54:14;101927.13;;;10.22;100.00
78613;BME280;67933;51.060;3.638;2023-08-07T05:56:40;101929.06;;;10.40;100.00
78613;BME280;67933;51.060;3.638;2023-08-07T05:59:06;101931.31;;;10.51;100.00
78613;BME280;67933;51.060;3.638;2023-08-07T06:01:31;101925.44;;;10.65;100.00
78613;BME280;67933;51.060;3.638;2023-08-07T06:03:57;101932.22;;;10.72;100.00
78613;BME280;67933;51.060;3.638;2023-08-07T06:06:24;101937.63;;;10.69;100.00
78613;BME280;67933;51.060;3.638;2023-08-07T06:08:50;101939.75;;;10.83;100.00
78613;BME280;67933;51.060;3.638;2023-08-07T06:11:16;101941.72;;;10.99;100.00
78613;BME280;67933;51.060;3.638;2023-08-07T06:13:42;101932.34;;;11.11;100.00
78613;BME280;67933;51.060;3.638;2023-08-07T06:16:08;101932.50;;;11.28;100.00
78613;BME280;67933;51.060;3.638;2023-08-07T06:18:34;101925.78;;;11.40;100.00
78613;BME280;67933;51.060;3.638;2023-08-07T06:20:59;101924.66;;;11.45;100.00
78613;BME280;67933;51.060;3.638;2023-08-07T06:23:25;101935.66;;;11.56;100.00
78613;BME280;67933;51.060;3.638;2023-08-07T06:25:50;101934.41;;;11.65;100.00
78613;BME280;67933;51.060;3.638;2023-08-07T06:28:15;101938.41;;;11.75;100.00
78613;BME280;67933;51.060;3.638;2023-08-07T06:30:41;101936.97;;;11.87;100.00
78613;BME280;67933;51.060;3.638;2023-08-07T06:33:06;101924.06;;;11.98;100.00
78613;BME280;67933;51.060;3.638;2023-08-07T06:35:37;101926.94;;;12.12;100.00
78613;BME280;67933;51.060;3.638;2023-08-07T06:38:03;101930.69;;;12.27;100.00
78613;BME280;67933;51.060;3.638;2023-08-07T06:40:29;101933.97;;;12.32;100.00
78613;BME280;67933;51.060;3.638;2023-08-07T06:42:54;101929.97;;;12.42;100.00
78613;BME280;67933;51.060;3.638;2023-08-07T06:45:19;101926.00;;;12.51;100.00
78613;BME280;67933;51.060;3.638;2023-08-07T06:47:45;101931.88;;;12.57;100.00
78613;BME280;67933;51.060;3.638;2023-08-07T06:50:11;101927.59;;;12.72;100.00
78613;BME280;67933;51.060;3.638;2023-08-07T06:52:37;101929.97;;;12.95;100.00
78613;BME280;67933;51.060;3.638;2023-08-07T06:55:03;101930.47;;;13.03;100.00
78613;BME280;67933;51.060;3.638;2023-08-07T06:57:28;101936.69;;;13.21;100.00
78613;BME280;67933;51.060;3.638;2023-08-07T06:59:54;101933.84;;;13.41;100.00
78613;BME280;67933;51.060;3.638;2023-08-07T07:02:19;101922.31;;;13.91;99.73
78613;BME280;67933;51.060;3.638;2023-08-07T07:04:45;101926.22;;;14.80;96.78
78613;BME280;67933;51.060;3.638;2023-08-07T07:07:10;101924.63;;;15.51;88.37
78613;BME280;67933;51.060;3.638;2023-08-07T07:09:36;101923.22;;;16.16;85.46
78613;BME280;67933;51.060;3.638;2023-08-07T07:12:01;101933.72;;;16.75;87.74
78613;BME280;67933;51.060;3.638;2023-08-07T07:14:26;101929.56;;;17.10;81.91
78613;BME280;67933;51.060;3.638;2023-08-07T07:16:52;101935.50;;;17.41;78.57
78613;BME280;67933;51.060;3.638;2023-08-07T07:19:17;101924.03;;;17.89;79.21
78613;BME280;67933;51.060;3.638;2023-08-07T07:21:43;101926.81;;;18.00;77.71
78613;BME280;67933;51.060;3.638;2023-08-07T07:24:09;101925.81;;;18.27;74.58
78613;BME280;67933;51.060;3.638;2023-08-07T07:26:35;101920.84;;;18.94;75.30
78613;BME280;67933;51.060;3.638;2023-08-07T07:29:00;101928.50;;;19.22;69.48
78613;BME280;67933;51.060;3.638;2023-08-07T07:31:26;101933.03;;;18.87;68.57
78613;BME280;67933;51.060;3.638;2023-08-07T07:33:51;101923.66;;;19.27;68.42
78613;BME280;67933;51.060;3.638;2023-08-07T07:36:17;101934.28;;;18.94;70.02
78613;BME280;67933;51.060;3.638;2023-08-07T07:38:45;101931.25;;;19.33;68.53
78613;BME280;67933;51.060;3.638;2023-08-07T07:41:11;101935.19;;;18.81;68.31
78613;BME280;67933;51.060;3.638;2023-08-07T07:43:37;101939.69;;;19.05;70.27
78613;BME280;67933;51.060;3.638;2023-08-07T07:46:03;101933.78;;;19.70;66.23
78613;BME280;67933;51.060;3.638;2023-08-07T07:48:28;101917.16;;;19.76;62.14
78613;BME280;67933;51.060;3.638;2023-08-07T07:51:02;101939.06;;;20.27;61.22
78613;BME280;67933;51.060;3.638;2023-08-07T07:53:28;101930.94;;;20.60;60.86
78613;BME280;67933;51.060;3.638;2023-08-07T07:55:54;101934.94;;;21.09;59.22
78613;BME280;67933;51.060;3.638;2023-08-07T07:58:20;101943.56;;;21.35;55.99
78613;BME280;67933;51.060;3.638;2023-08-07T08:00:46;101936.31;;;21.35;55.93
78613;BME280;67933;51.060;3.638;2023-08-07T08:03:11;101936.78;;;20.33;62.40
78613;BME280;67933;51.060;3.638;2023-08-07T08:05:37;101955.63;;;19.08;63.55
78613;BME280;67933;51.060;3.638;2023-08-07T08:08:03;101965.31;;;18.87;64.28
78613;BME280;67933;51.060;3.638;2023-08-07T08:10:29;101947.03;;;19.95;57.23
78613;BME280;67933;51.060;3.638;2023-08-07T08:12:55;101944.56;;;19.58;57.99
78613;BME280;67933;51.060;3.638;2023-08-07T08:15:21;101944.94;;;20.32;55.78
78613;BME280;67933;51.060;3.638;2023-08-07T08:17:47;101948.59;;;20.53;56.16
78613;BME280;67933;51.060;3.638;2023-08-07T08:20:12;101952.81;;;20.89;54.26
78613;BME280;67933;51.060;3.638;2023-08-07T08:22:42;101942.44;;;21.58;50.62
78613;BME280;67933;51.060;3.638;2023-08-07T08:25:08;101951.53;;;21.57;48.40
78613;BME280;67933;51.060;3.638;2023-08-07T08:27:34;101954.84;;;22.12;51.85
78613;BME280;67933;51.060;3.638;2023-08-07T08:30:00;101957.91;;;21.98;51.96
78613;BME280;67933;51.060;3.638;2023-08-07T08:32:25;101954.38;;;21.86;49.57
78613;BME280;67933;51.060;3.638;2023-08-07T08:34:51;101970.34;;;21.68;52.16
78613;BME280;67933;51.060;3.638;2023-08-07T08:37:17;101967.59;;;21.38;49.65
78613;BME280;67933;51.060;3.638;2023-08-07T08:39:42;101977.38;;;22.22;52.81
78613;BME280;67933;51.060;3.638;2023-08-07T08:42:10;101971.34;;;22.58;46.44
78613;BME280;67933;51.060;3.638;2023-08-07T08:44:39;101972.75;;;23.12;46.82
78613;BME280;67933;51.060;3.638;2023-08-07T08:47:05;101977.88;;;23.44;46.77
78613;BME280;67933;51.060;3.638;2023-08-07T08:49:35;101978.00;;;23.42;46.24
78613;BME280;67933;51.060;3.638;2023-08-07T08:52:02;101970.25;;;23.86;43.12
78613;BME280;67933;51.060;3.638;2023-08-07T08:54:28;101981.66;;;24.36;41.60
78613;BME280;67933;51.060;3.638;2023-08-07T08:56:55;101977.25;;;24.16;44.46
78613;BME280;67933;51.060;3.638;2023-08-07T08:59:22;101973.72;;;24.15;41.70
78613;BME280;67933;51.060;3.638;2023-08-07T09:01:48;101987.16;;;23.51;42.56
78613;BME280;67933;51.060;3.638;2023-08-07T09:04:16;101988.09;;;22.92;44.08
78613;BME280;67933;51.060;3.638;2023-08-07T09:06:43;101987.53;;;23.08;45.05
78613;BME280;67933;51.060;3.638;2023-08-07T09:09:08;101987.06;;;22.34;47.73
78613;BME280;67933;51.060;3.638;2023-08-07T09:11:35;101985.78;;;21.57;49.53
78613;BME280;67933;51.060;3.638;2023-08-07T09:14:02;101994.09;;;21.44;50.76
78613;BME280;67933;51.060;3.638;2023-08-07T09:16:28;101996.84;;;20.90;53.53
78613;BME280;67933;51.060;3.638;2023-08-07T09:18:55;101987.66;;;21.86;50.91
78613;BME280;67933;51.060;3.638;2023-08-07T09:21:21;101992.72;;;23.30;48.03
78613;BME280;67933;51.060;3.638;2023-08-07T09:23:46;101982.69;;;23.40;47.58
78613;BME280;67933;51.060;3.638;2023-08-07T09:26:12;101988.72;;;23.54;46.41
78613;BME280;67933;51.060;3.638;2023-08-07T09:28:37;101957.63;;;23.29;44.54
78613;BME280;67933;51.060;3.638;2023-08-07T09:31:06;101996.13;;;22.14;47.91
78613;BME280;67933;51.060;3.638;2023-08-07T09:33:31;101996.72;;;22.67;46.70
78613;BME280;67933;51.060;3.638;2023-08-07T09:36:01;101996.09;;;23.71;45.96
78613;BME280;67933;51.060;3.638;2023-08-07T09:38:28;101985.19;;;25.27;47.82
78613;BME280;67933;51.060;3.638;2023-08-07T09:40:57;101984.84;;;24.77;41.59
78613;BME280;67933;51.060;3.638;2023-08-07T09:43:23;101989.72;;;25.01;43.65
78613;BME280;67933;51.060;3.638;2023-08-07T09:45:48;101992.91;;;25.32;40.95
78613;BME280;67933;51.060;3.638;2023-08-07T09:48:24;101984.78;;;25.57;42.64
78613;BME280;67933;51.060;3.638;2023-08-07T09:50:50;101987.41;;;22.50;45.82
78613;BME280;67933;51.060;3.638;2023-08-07T09:53:15;101997.19;;;21.60;51.66
78613;BME280;67933;51.060;3.638;2023-08-07T09:55:41;102009.50;;;23.05;49.29
78613;BME280;67933;51.060;3.638;2023-08-07T09:58:08;102000.19;;;23.94;44.93
78613;BME280;67933;51.060;3.638;2023-08-07T10:00:36;101991.59;;;25.00;42.56
78613;BME280;67933;51.060;3.638;2023-08-07T10:03:02;101989.94;;;24.35;42.13
78613;BME280;67933;51.060;3.638;2023-08-07T10:05:28;101988.22;;;23.87;44.98
78613;BME280;67933;51.060;3.638;2023-08-07T10:07:54;101990.97;;;22.91;47.35
78613;BME280;67933;51.060;3.638;2023-08-07T10:10:21;101997.97;;;21.51;49.70
78613;BME280;67933;51.060;3.638;2023-08-07T10:12:47;101992.94;;;20.71;52.99
78613;BME280;67933;51.060;3.638;2023-08-07T10:15:14;101994.00;;;21.55;51.37
78613;BME280;67933;51.060;3.638;2023-08-07T10:17:40;101983.84;;;23.09;48.07
78613;BME280;67933;51.060;3.638;2023-08-07T10:20:06;101978.31;;;24.42;44.90
78613;BME280;67933;51.060;3.638;2023-08-07T10:22:34;101985.06;;;24.93;44.62
78613;BME280;67933;51.060;3.638;2023-08-07T10:25:02;101980.50;;;25.73;41.26
78613;BME280;67933;51.060;3.638;2023-08-07T10:27:31;101979.28;;;25.93;42.38
78613;BME280;67933;51.060;3.638;2023-08-07T10:29:59;101980.09;;;24.34;42.72
78613;BME280;67933;51.060;3.638;2023-08-07T10:32:27;101979.56;;;22.47;47.57
78613;BME280;67933;51.060;3.638;2023-08-07T10:34:54;101989.59;;;21.54;49.04
78613;BME280;67933;51.060;3.638;2023-08-07T10:37:46;101998.59;;;21.11;51.50
78613;BME280;67933;51.060;3.638;2023-08-07T10:40:12;101995.94;;;22.76;48.21
78613;BME280;67933;51.060;3.638;2023-08-07T10:45:34;101997.47;;;21.46;50.85
78613;BME280;67933;51.060;3.638;2023-08-07T10:53:34;101989.69;;;25.54;43.52
78613;BME280;67933;51.060;3.638;2023-08-07T10:56:04;101999.22;;;24.60;47.58
78613;BME280;67933;51.060;3.638;2023-08-07T10:58:31;101990.94;;;25.42;48.31
78613;BME280;67933;51.060;3.638;2023-08-07T11:03:51;101996.44;;;22.30;46.86
78613;BME280;67933;51.060;3.638;2023-08-07T11:06:21;102006.56;;;21.45;51.28
78613;BME280;67933;51.060;3.638;2023-08-07T11:08:48;102009.91;;;21.17;53.17
78613;BME280;67933;51.060;3.638;2023-08-07T11:11:14;101999.44;;;22.67;50.36
78613;BME280;67933;51.060;3.638;2023-08-07T11:13:39;101992.75;;;24.43;46.64
78613;BME280;67933;51.060;3.638;2023-08-07T11:16:05;101991.75;;;26.03;41.16
78613;BME280;67933;51.060;3.638;2023-08-07T11:18:31;101980.56;;;26.32;41.46
78613;BME280;67933;51.060;3.638;2023-08-07T11:20:58;101997.56;;;25.39;43.22
78613;BME280;67933;51.060;3.638;2023-08-07T11:23:27;101991.53;;;25.97;40.41
78613;BME280;67933;51.060;3.638;2023-08-07T11:25:53;101993.81;;;26.35;39.25
78613;BME280;67933;51.060;3.638;2023-08-07T11:28:20;102000.03;;;25.94;41.39
78613;BME280;67933;51.060;3.638;2023-08-07T11:30:52;101991.97;;;23.48;44.74
78613;BME280;67933;51.060;3.638;2023-08-07T11:33:19;102003.50;;;22.82;46.41
78613;BME280;67933;51.060;3.638;2023-08-07T11:35:46;101992.78;;;23.87;43.54
78613;BME280;67933;51.060;3.638;2023-08-07T11:38:11;101992.72;;;24.52;42.10
78613;BME280;67933;51.060;3.638;2023-08-07T11:40:37;101989.56;;;25.20;43.85
78613;BME280;67933;51.060;3.638;2023-08-07T11:43:02;102004.66;;;23.47;43.23
78613;BME280;67933;51.060;3.638;2023-08-07T11:45:28;101997.59;;;22.27;47.22
78613;BME280;67933;51.060;3.638;2023-08-07T11:47:55;101988.44;;;23.37;44.88
78613;BME280;67933;51.060;3.638;2023-08-07T11:50:27;101985.38;;;24.80;42.08
78613;BME280;67933;51.060;3.638;2023-08-07T11:52:53;101981.19;;;24.68;42.32
78613;BME280;67933;51.060;3.638;2023-08-07T11:55:18;101976.78;;;26.75;45.36
78613;BME280;67933;51.060;3.638;2023-08-07T11:57:46;101978.56;;;25.65;40.16
78613;BME280;67933;51.060;3.638;2023-08-07T12:00:12;101978.22;;;23.88;43.54
78613;BME280;67933;51.060;3.638;2023-08-07T12:02:43;101984.31;;;22.64;46.23
78613;BME280;67933;51.060;3.638;2023-08-07T12:05:10;101983.56;;;21.30;50.73
78613;BME280;67933;51.060;3.638;2023-08-07T12:07:39;101995.06;;;22.76;50.59
78613;BME280;67933;51.060;3.638;2023-08-07T12:10:08;101997.22;;;23.01;47.29
78613;BME280;67933;51.060;3.638;2023-08-07T12:12:37;101975.72;;;24.13;44.90
78613;BME280;67933;51.060;3.638;2023-08-07T12:15:07;101974.59;;;24.88;43.10
78613;BME280;67933;51.060;3.638;2023-08-07T12:17:33;101983.13;;;22.48;45.65
78613;BME280;67933;51.060;3.638;2023-08-07T12:19:58;101977.94;;;21.33;50.63
78613;BME280;67933;51.060;3.638;2023-08-07T12:22:27;101984.31;;;21.52;50.42
78613;BME280;67933;51.060;3.638;2023-08-07T12:24:53;101978.75;;;21.96;50.29
78613;BME280;67933;51.060;3.638;2023-08-07T12:27:19;101986.81;;;21.12;51.72
78613;BME280;67933;51.060;3.638;2023-08-07T12:29:45;101980.88;;;22.53;55.02
78613;BME280;67933;51.060;3.638;2023-08-07T12:32:10;101994.09;;;22.06;48.62
78613;BME280;67933;51.060;3.638;2023-08-07T12:34:36;101975.34;;;22.64;49.98
78613;BME280;67933;51.060;3.638;2023-08-07T12:37:03;101980.50;;;21.55;51.39
78613;BME280;67933;51.060;3.638;2023-08-07T12:39:29;101980.44;;;21.87;51.41
78613;BME280;67933;51.060;3.638;2023-08-07T12:41:54;101983.53;;;23.70;46.73
78613;BME280;67933;51.060;3.638;2023-08-07T12:44:20;101969.53;;;25.03;45.29
78613;BME280;67933;51.060;3.638;2023-08-07T12:46:45;101967.28;;;24.71;43.64
78613;BME280;67933;51.060;3.638;2023-08-07T12:49:11;101976.69;;;23.47;47.34
78613;BME280;67933;51.060;3.638;2023-08-07T12:51:36;101966.88;;;23.65;45.02
78613;BME280;67933;51.060;3.638;2023-08-07T12:54:02;101975.91;;;23.93;44.72
78613;BME280;67933;51.060;3.638;2023-08-07T12:56:27;101983.13;;;23.55;44.82
78613;BME280;67933;51.060;3.638;2023-08-07T12:58:53;101966.09;;;24.38;44.12